sensor_id;sensor_type;location;lat;lon;timestamp;temperature;humidity
24664;DHT22;12791;50.992;13.788;2023-06-10T00:01:22;19.70;99.10
24664;DHT22;12791;50.992;13.788;2023-06-10T00:03:49;19.60;99.60
24664;DHT22;12791;50.992;13.788;2023-06-10T00:06:17;19.70;99.90
24664;DHT22;12791;50.992;13.788;2023-06-10T00:08:45;19.60;99.90
24664;DHT22;12791;50.992;13.788;2023-06-10T00:11:12;19.60;99.90
24664;DHT22;12791;50.992;13.788;2023-06-10T00:13:39;19.50;99.90
24664;DHT22;12791;50.992;13.788;2023-06-10T00:16:06;19.50;99.90
24664;DHT22;12791;50.992;13.788;2023-06-10T00:18:32;19.50;99.90
24664;DHT22;12791;50.992;13.788;2023-06-10T00:21:02;19.50;99.90
24664;DHT22;12791;50.992;13.788;2023-06-10T00:23:29;19.40;99.90
24664;DHT22;12791;50.992;13.788;2023-06-10T00:25:58;19.50;99.90
24664;DHT22;12791;50.992;13.788;2023-06-10T00:28:25;19.40;99.90
24664;DHT22;12791;50.992;13.788;2023-06-10T00:30:52;19.40;99.90
24664;DHT22;12791;50.992;13.788;2023-06-10T00:33:18;19.40;99.90
24664;DHT22;12791;50.992;13.788;2023-06-10T00:35:45;19.40;99.90
24664;DHT22;12791;50.992;13.788;2023-06-10T00:38:13;19.30;99.90
24664;DHT22;12791;50.992;13.788;2023-06-10T00:40:40;19.30;99.90
24664;DHT22;12791;50.992;13.788;2023-06-10T00:43:08;19.20;99.90
24664;DHT22;12791;50.992;13.788;2023-06-10T00:45:35;19.20;99.90
24664;DHT22;12791;50.992;13.788;2023-06-10T00:48:02;19.20;99.90
24664;DHT22;12791;50.992;13.788;2023-06-10T00:50:29;19.20;99.90
24664;DHT22;12791;50.992;13.788;2023-06-10T00:52:58;19.10;99.90
24664;DHT22;12791;50.992;13.788;2023-06-10T00:55:25;19.10;99.90
24664;DHT22;12791;50.992;13.788;2023-06-10T00:57:53;19.10;99.90
24664;DHT22;12791;50.992;13.788;2023-06-10T01:00:21;19.00;99.90
24664;DHT22;12791;50.992;13.788;2023-06-10T01:02:48;19.00;99.90
24664;DHT22;12791;50.992;13.788;2023-06-10T01:05:17;18.90;99.90
24664;DHT22;12791;50.992;13.788;2023-06-10T01:07:50;18.90;99.90
24664;DHT22;12791;50.992;13.788;2023-06-10T01:10:23;18.90;99.90
24664;DHT22;12791;50.992;13.788;2023-06-10T01:12:57;18.80;99.90
24664;DHT22;12791;50.992;13.788;2023-06-10T01:15:26;18.80;99.90
24664;DHT22;12791;50.992;13.788;2023-06-10T01:17:56;18.80;99.90
24664;DHT22;12791;50.992;13.788;2023-06-10T01:20:25;18.80;99.90
24664;DHT22;12791;50.992;13.788;2023-06-10T01:22:53;18.70;99.90
24664;DHT22;12791;50.992;13.788;2023-06-10T01:25:20;18.70;99.90
24664;DHT22;12791;50.992;13.788;2023-06-10T01:27:54;18.60;99.90
24664;DHT22;12791;50.992;13.788;2023-06-10T01:30:26;18.60;99.90
24664;DHT22;12791;50.992;13.788;2023-06-10T01:32:55;18.50;99.90
24664;DHT22;12791;50.992;13.788;2023-06-10T01:35:24;18.50;99.90
24664;DHT22;12791;50.992;13.788;2023-06-10T01:37:54;18.50;99.90
24664;DHT22;12791;50.992;13.788;2023-06-10T01:40:23;18.50;99.90
24664;DHT22;12791;50.992;13.788;2023-06-10T01:42:52;18.50;99.90
24664;DHT22;12791;50.992;13.788;2023-06-10T01:45:18;18.40;99.90
24664;DHT22;12791;50.992;13.788;2023-06-10T01:47:45;18.40;99.90
24664;DHT22;12791;50.992;13.788;2023-06-10T01:50:12;18.40;99.90
24664;DHT22;12791;50.992;13.788;2023-06-10T01:52:38;18.40;99.90
24664;DHT22;12791;50.992;13.788;2023-06-10T01:55:07;18.40;99.90
24664;DHT22;12791;50.992;13.788;2023-06-10T01:57:33;18.40;99.90
24664;DHT22;12791;50.992;13.788;2023-06-10T02:00:00;18.40;99.90
24664;DHT22;12791;50.992;13.788;2023-06-10T02:02:28;18.40;99.90
24664;DHT22;12791;50.992;13.788;2023-06-10T02:04:55;18.40;99.90
24664;DHT22;12791;50.992;13.788;2023-06-10T02:07:22;18.40;99.90
24664;DHT22;12791;50.992;13.788;2023-06-10T02:09:49;18.40;99.90
24664;DHT22;12791;50.992;13.788;2023-06-10T02:12:17;18.40;99.90
24664;DHT22;12791;50.992;13.788;2023-06-10T02:14:44;18.40;99.90
24664;DHT22;12791;50.992;13.788;2023-06-10T02:17:10;18.40;99.90
24664;DHT22;12791;50.992;13.788;2023-06-10T02:19:40;18.40;99.90
24664;DHT22;12791;50.992;13.788;2023-06-10T02:22:08;18.40;99.90
24664;DHT22;12791;50.992;13.788;2023-06-10T02:24:35;18.40;99.90
24664;DHT22;12791;50.992;13.788;2023-06-10T02:27:03;18.40;99.90
24664;DHT22;12791;50.992;13.788;2023-06-10T02:29:33;18.30;99.90
24664;DHT22;12791;50.992;13.788;2023-06-10T02:31:59;18.30;99.90
24664;DHT22;12791;50.992;13.788;2023-06-10T02:34:26;18.30;99.90
24664;DHT22;12791;50.992;13.788;2023-06-10T02:36:54;18.30;99.90
24664;DHT22;12791;50.992;13.788;2023-06-10T02:39:21;18.30;99.90
24664;DHT22;12791;50.992;13.788;2023-06-10T02:41:48;18.30;99.90
24664;DHT22;12791;50.992;13.788;2023-06-10T02:44:14;18.20;99.90
24664;DHT22;12791;50.992;13.788;2023-06-10T02:46:42;18.30;99.90
24664;DHT22;12791;50.992;13.788;2023-06-10T02:49:09;18.20;99.90
24664;DHT22;12791;50.992;13.788;2023-06-10T02:51:35;18.20;99.90
24664;DHT22;12791;50.992;13.788;2023-06-10T02:54:02;18.10;99.90
24664;DHT22;12791;50.992;13.788;2023-06-10T02:56:29;18.10;99.90
24664;DHT22;12791;50.992;13.788;2023-06-10T02:58:55;18.00;99.90
24664;DHT22;12791;50.992;13.788;2023-06-10T03:01:22;18.00;99.90
24664;DHT22;12791;50.992;13.788;2023-06-10T03:03:50;18.00;99.90
24664;DHT22;12791;50.992;13.788;2023-06-10T03:06:18;18.00;99.90
24664;DHT22;12791;50.992;13.788;2023-06-10T03:08:44;17.90;99.90
24664;DHT22;12791;50.992;13.788;2023-06-10T03:11:11;17.90;99.90
24664;DHT22;12791;50.992;13.788;2023-06-10T03:13:38;17.90;99.90
24664;DHT22;12791;50.992;13.788;2023-06-10T03:16:05;17.90;99.90
24664;DHT22;12791;50.992;13.788;2023-06-10T03:18:33;17.80;99.90
24664;DHT22;12791;50.992;13.788;2023-06-10T03:21:01;17.80;99.90
24664;DHT22;12791;50.992;13.788;2023-06-10T03:23:28;17.80;99.90
24664;DHT22;12791;50.992;13.788;2023-06-10T03:25:54;17.80;99.90
24664;DHT22;12791;50.992;13.788;2023-06-10T03:28:21;17.80;99.90
24664;DHT22;12791;50.992;13.788;2023-06-10T03:30:48;17.80;99.90
24664;DHT22;12791;50.992;13.788;2023-06-10T03:33:15;17.70;99.90
24664;DHT22;12791;50.992;13.788;2023-06-10T03:35:41;17.70;99.90
24664;DHT22;12791;50.992;13.788;2023-06-10T03:38:09;17.70;99.90
24664;DHT22;12791;50.992;13.788;2023-06-10T03:40:36;17.80;99.90
24664;DHT22;12791;50.992;13.788;2023-06-10T03:43:03;17.80;99.90
24664;DHT22;12791;50.992;13.788;2023-06-10T03:45:29;17.80;99.90
24664;DHT22;12791;50.992;13.788;2023-06-10T03:47:57;17.80;99.90
24664;DHT22;12791;50.992;13.788;2023-06-10T03:50:24;17.80;99.90
24664;DHT22;12791;50.992;13.788;2023-06-10T03:52:51;17.80;99.90
24664;DHT22;12791;50.992;13.788;2023-06-10T03:55:19;17.80;99.90
24664;DHT22;12791;50.992;13.788;2023-06-10T03:57:47;17.80;99.90
24664;DHT22;12791;50.992;13.788;2023-06-10T04:00:14;17.80;99.90
24664;DHT22;12791;50.992;13.788;2023-06-10T04:02:41;17.80;99.90
24664;DHT22;12791;50.992;13.788;2023-06-10T04:05:11;17.80;99.90
24664;DHT22;12791;50.992;13.788;2023-06-10T04:07:38;17.80;99.90
24664;DHT22;12791;50.992;13.788;2023-06-10T04:10:07;17.90;99.90
24664;DHT22;12791;50.992;13.788;2023-06-10T04:12:35;17.80;99.90
24664;DHT22;12791;50.992;13.788;2023-06-10T04:15:02;17.90;99.90
24664;DHT22;12791;50.992;13.788;2023-06-10T04:17:29;17.90;99.90
24664;DHT22;12791;50.992;13.788;2023-06-10T04:19:55;18.00;99.90
24664;DHT22;12791;50.992;13.788;2023-06-10T04:22:23;18.10;99.90
24664;DHT22;12791;50.992;13.788;2023-06-10T04:24:50;18.10;99.90
24664;DHT22;12791;50.992;13.788;2023-06-10T04:27:17;18.10;99.90
24664;DHT22;12791;50.992;13.788;2023-06-10T04:29:45;18.20;99.90
24664;DHT22;12791;50.992;13.788;2023-06-10T04:32:11;18.30;99.90
24664;DHT22;12791;50.992;13.788;2023-06-10T04:34:38;18.30;99.90
24664;DHT22;12791;50.992;13.788;2023-06-10T04:37:05;18.40;99.90
24664;DHT22;12791;50.992;13.788;2023-06-10T04:39:32;18.50;99.90
24664;DHT22;12791;50.992;13.788;2023-06-10T04:41:59;18.60;99.90
24664;DHT22;12791;50.992;13.788;2023-06-10T04:44:27;18.70;99.90
24664;DHT22;12791;50.992;13.788;2023-06-10T04:46:54;18.80;99.90
24664;DHT22;12791;50.992;13.788;2023-06-10T04:49:21;18.80;99.90
24664;DHT22;12791;50.992;13.788;2023-06-10T04:51:48;18.90;99.90
24664;DHT22;12791;50.992;13.788;2023-06-10T04:54:16;19.00;99.90
24664;DHT22;12791;50.992;13.788;2023-06-10T04:56:43;19.00;99.90
24664;DHT22;12791;50.992;13.788;2023-06-10T04:59:10;19.10;99.90
24664;DHT22;12791;50.992;13.788;2023-06-10T05:01:37;19.20;99.90
24664;DHT22;12791;50.992;13.788;2023-06-10T05:04:05;19.30;99.90
24664;DHT22;12791;50.992;13.788;2023-06-10T05:06:31;19.30;99.90
24664;DHT22;12791;50.992;13.788;2023-06-10T05:08:58;19.40;99.90
24664;DHT22;12791;50.992;13.788;2023-06-10T05:11:24;19.40;99.90
24664;DHT22;12791;50.992;13.788;2023-06-10T05:13:51;19.50;99.90
24664;DHT22;12791;50.992;13.788;2023-06-10T05:16:17;19.50;99.90
24664;DHT22;12791;50.992;13.788;2023-06-10T05:18:44;19.50;99.90
24664;DHT22;12791;50.992;13.788;2023-06-10T05:21:12;19.60;99.90
24664;DHT22;12791;50.992;13.788;2023-06-10T05:23:39;19.60;99.90
24664;DHT22;12791;50.992;13.788;2023-06-10T05:26:06;19.70;99.90
24664;DHT22;12791;50.992;13.788;2023-06-10T05:28:32;19.70;99.90
24664;DHT22;12791;50.992;13.788;2023-06-10T05:30:59;19.70;99.90
24664;DHT22;12791;50.992;13.788;2023-06-10T05:33:25;19.80;99.90
24664;DHT22;12791;50.992;13.788;2023-06-10T05:35:52;19.80;99.90
24664;DHT22;12791;50.992;13.788;2023-06-10T05:38:20;19.80;99.90
24664;DHT22;12791;50.992;13.788;2023-06-10T05:40:47;19.90;99.90
24664;DHT22;12791;50.992;13.788;2023-06-10T05:43:13;19.80;99.90
24664;DHT22;12791;50.992;13.788;2023-06-10T05:45:42;19.70;99.90
24664;DHT22;12791;50.992;13.788;2023-06-10T05:48:08;19.70;99.90
24664;DHT22;12791;50.992;13.788;2023-06-10T05:50:35;19.70;99.90
24664;DHT22;12791;50.992;13.788;2023-06-10T05:53:04;19.70;99.90
24664;DHT22;12791;50.992;13.788;2023-06-10T05:55:33;19.70;99.90
24664;DHT22;12791;50.992;13.788;2023-06-10T05:58:00;19.80;99.90
24664;DHT22;12791;50.992;13.788;2023-06-10T06:00:26;19.80;99.90
24664;DHT22;12791;50.992;13.788;2023-06-10T06:02:54;19.70;99.90
24664;DHT22;12791;50.992;13.788;2023-06-10T06:05:20;19.70;99.90
24664;DHT22;12791;50.992;13.788;2023-06-10T06:07:47;19.70;99.90
24664;DHT22;12791;50.992;13.788;2023-06-10T06:10:14;19.80;99.90
24664;DHT22;12791;50.992;13.788;2023-06-10T06:12:42;19.70;99.90
24664;DHT22;12791;50.992;13.788;2023-06-10T06:15:10;19.80;99.90
24664;DHT22;12791;50.992;13.788;2023-06-10T06:17:36;19.80;99.90
24664;DHT22;12791;50.992;13.788;2023-06-10T06:20:04;19.90;99.90
24664;DHT22;12791;50.992;13.788;2023-06-10T06:22:31;19.90;99.90
24664;DHT22;12791;50.992;13.788;2023-06-10T06:24:57;20.00;99.90
24664;DHT22;12791;50.992;13.788;2023-06-10T06:27:24;20.10;99.90
24664;DHT22;12791;50.992;13.788;2023-06-10T06:29:52;20.10;99.90
24664;DHT22;12791;50.992;13.788;2023-06-10T06:32:18;20.20;99.90
24664;DHT22;12791;50.992;13.788;2023-06-10T06:34:46;20.20;99.90
24664;DHT22;12791;50.992;13.788;2023-06-10T06:37:14;20.30;99.90
24664;DHT22;12791;50.992;13.788;2023-06-10T06:39:41;20.30;99.90
24664;DHT22;12791;50.992;13.788;2023-06-10T06:42:08;20.30;99.90
24664;DHT22;12791;50.992;13.788;2023-06-10T06:44:34;20.30;99.90
24664;DHT22;12791;50.992;13.788;2023-06-10T06:47:02;20.30;99.90
24664;DHT22;12791;50.992;13.788;2023-06-10T06:49:29;20.30;99.90
24664;DHT22;12791;50.992;13.788;2023-06-10T06:51:56;20.30;99.90
24664;DHT22;12791;50.992;13.788;2023-06-10T06:54:22;20.30;99.90
24664;DHT22;12791;50.992;13.788;2023-06-10T06:56:49;20.30;99.90
24664;DHT22;12791;50.992;13.788;2023-06-10T06:59:16;20.30;99.90
24664;DHT22;12791;50.992;13.788;2023-06-10T07:01:44;20.40;99.90
24664;DHT22;12791;50.992;13.788;2023-06-10T07:04:15;20.40;99.90
24664;DHT22;12791;50.992;13.788;2023-06-10T07:06:42;20.40;99.90
24664;DHT22;12791;50.992;13.788;2023-06-10T07:09:08;20.40;99.90
24664;DHT22;12791;50.992;13.788;2023-06-10T07:11:35;20.40;99.90
24664;DHT22;12791;50.992;13.788;2023-06-10T07:14:01;20.50;99.90
24664;DHT22;12791;50.992;13.788;2023-06-10T07:16:28;20.50;99.90
24664;DHT22;12791;50.992;13.788;2023-06-10T07:18:54;20.60;99.90
24664;DHT22;12791;50.992;13.788;2023-06-10T07:21:22;20.70;99.90
24664;DHT22;12791;50.992;13.788;2023-06-10T07:23:49;20.70;99.90
24664;DHT22;12791;50.992;13.788;2023-06-10T07:26:18;20.70;99.90
24664;DHT22;12791;50.992;13.788;2023-06-10T07:28:45;20.80;99.90
24664;DHT22;12791;50.992;13.788;2023-06-10T07:31:12;20.70;99.90
24664;DHT22;12791;50.992;13.788;2023-06-10T07:33:38;20.70;99.90
24664;DHT22;12791;50.992;13.788;2023-06-10T07:36:05;20.70;99.90
24664;DHT22;12791;50.992;13.788;2023-06-10T07:38:33;20.80;99.90
24664;DHT22;12791;50.992;13.788;2023-06-10T07:41:00;20.80;99.90
24664;DHT22;12791;50.992;13.788;2023-06-10T07:43:27;20.70;99.90
24664;DHT22;12791;50.992;13.788;2023-06-10T07:45:53;20.80;99.90
24664;DHT22;12791;50.992;13.788;2023-06-10T07:48:20;20.80;99.90
24664;DHT22;12791;50.992;13.788;2023-06-10T07:50:46;20.80;99.90
24664;DHT22;12791;50.992;13.788;2023-06-10T07:53:13;20.80;99.90
24664;DHT22;12791;50.992;13.788;2023-06-10T07:55:41;20.90;99.90
24664;DHT22;12791;50.992;13.788;2023-06-10T07:58:07;20.90;99.90
24664;DHT22;12791;50.992;13.788;2023-06-10T08:00:34;20.90;99.90
24664;DHT22;12791;50.992;13.788;2023-06-10T08:03:01;20.90;99.90
24664;DHT22;12791;50.992;13.788;2023-06-10T08:05:27;20.90;99.90
24664;DHT22;12791;50.992;13.788;2023-06-10T08:07:55;21.00;99.90
24664;DHT22;12791;50.992;13.788;2023-06-10T08:10:22;21.00;99.90
24664;DHT22;12791;50.992;13.788;2023-06-10T08:12:50;21.00;99.90
24664;DHT22;12791;50.992;13.788;2023-06-10T08:15:16;21.10;99.90
24664;DHT22;12791;50.992;13.788;2023-06-10T08:17:43;21.10;99.90
24664;DHT22;12791;50.992;13.788;2023-06-10T08:20:10;21.10;99.90
24664;DHT22;12791;50.992;13.788;2023-06-10T08:22:37;21.20;99.90
24664;DHT22;12791;50.992;13.788;2023-06-10T08:25:05;21.30;99.90
24664;DHT22;12791;50.992;13.788;2023-06-10T08:27:31;21.30;99.90
24664;DHT22;12791;50.992;13.788;2023-06-10T08:29:59;21.40;99.90
24664;DHT22;12791;50.992;13.788;2023-06-10T08:32:26;21.40;99.90
24664;DHT22;12791;50.992;13.788;2023-06-10T08:34:52;21.50;99.90
24664;DHT22;12791;50.992;13.788;2023-06-10T08:37:19;21.50;99.90
24664;DHT22;12791;50.992;13.788;2023-06-10T08:39:45;21.60;99.90
24664;DHT22;12791;50.992;13.788;2023-06-10T08:42:20;21.60;99.90
24664;DHT22;12791;50.992;13.788;2023-06-10T08:44:49;21.60;99.90
24664;DHT22;12791;50.992;13.788;2023-06-10T08:47:19;21.70;99.90
24664;DHT22;12791;50.992;13.788;2023-06-10T08:49:48;21.80;99.90
24664;DHT22;12791;50.992;13.788;2023-06-10T08:52:16;21.80;99.90
24664;DHT22;12791;50.992;13.788;2023-06-10T08:54:46;21.80;99.90
24664;DHT22;12791;50.992;13.788;2023-06-10T08:57:15;21.80;99.90
24664;DHT22;12791;50.992;13.788;2023-06-10T08:59:43;21.90;99.90
24664;DHT22;12791;50.992;13.788;2023-06-10T09:02:10;21.90;99.90
24664;DHT22;12791;50.992;13.788;2023-06-10T09:04:38;21.90;99.90
24664;DHT22;12791;50.992;13.788;2023-06-10T09:07:05;22.00;99.90
24664;DHT22;12791;50.992;13.788;2023-06-10T09:09:34;22.10;99.90
24664;DHT22;12791;50.992;13.788;2023-06-10T09:12:01;22.10;99.90
24664;DHT22;12791;50.992;13.788;2023-06-10T09:14:28;22.20;99.30
24664;DHT22;12791;50.992;13.788;2023-06-10T09:16:55;22.20;99.10
24664;DHT22;12791;50.992;13.788;2023-06-10T09:19:23;22.30;97.60
24664;DHT22;12791;50.992;13.788;2023-06-10T09:21:52;22.20;97.00
24664;DHT22;12791;50.992;13.788;2023-06-10T09:24:20;22.30;94.80
24664;DHT22;12791;50.992;13.788;2023-06-10T09:26:47;22.30;94.80
24664;DHT22;12791;50.992;13.788;2023-06-10T09:29:13;22.30;94.80
24664;DHT22;12791;50.992;13.788;2023-06-10T09:31:40;22.40;94.50
24664;DHT22;12791;50.992;13.788;2023-06-10T09:34:08;22.40;94.30
24664;DHT22;12791;50.992;13.788;2023-06-10T09:36:36;22.50;93.80
24664;DHT22;12791;50.992;13.788;2023-06-10T09:39:04;22.60;93.70
24664;DHT22;12791;50.992;13.788;2023-06-10T09:41:34;22.80;93.40
24664;DHT22;12791;50.992;13.788;2023-06-10T09:44:01;22.90;92.50
24664;DHT22;12791;50.992;13.788;2023-06-10T09:46:31;22.90;90.00
24664;DHT22;12791;50.992;13.788;2023-06-10T09:48:58;22.90;89.10
24664;DHT22;12791;50.992;13.788;2023-06-10T09:51:25;23.00;89.10
24664;DHT22;12791;50.992;13.788;2023-06-10T09:53:52;23.00;89.50
24664;DHT22;12791;50.992;13.788;2023-06-10T09:56:20;23.00;89.90
24664;DHT22;12791;50.992;13.788;2023-06-10T09:58:53;23.00;90.00
24664;DHT22;12791;50.992;13.788;2023-06-10T10:01:19;23.00;89.70
24664;DHT22;12791;50.992;13.788;2023-06-10T10:03:47;23.10;89.40
24664;DHT22;12791;50.992;13.788;2023-06-10T10:06:15;23.10;88.70
24664;DHT22;12791;50.992;13.788;2023-06-10T10:08:42;23.20;87.00
24664;DHT22;12791;50.992;13.788;2023-06-10T10:11:08;23.30;87.10
24664;DHT22;12791;50.992;13.788;2023-06-10T10:13:37;23.40;84.50
24664;DHT22;12791;50.992;13.788;2023-06-10T10:16:09;23.40;84.20
24664;DHT22;12791;50.992;13.788;2023-06-10T10:18:39;23.60;83.50
24664;DHT22;12791;50.992;13.788;2023-06-10T10:21:06;23.70;81.10
24664;DHT22;12791;50.992;13.788;2023-06-10T10:23:41;23.80;80.80
24664;DHT22;12791;50.992;13.788;2023-06-10T10:26:11;23.90;77.70
24664;DHT22;12791;50.992;13.788;2023-06-10T10:28:42;24.00;75.80
24664;DHT22;12791;50.992;13.788;2023-06-10T10:31:12;24.00;73.20
24664;DHT22;12791;50.992;13.788;2023-06-10T10:33:54;24.10;69.40
24664;DHT22;12791;50.992;13.788;2023-06-10T10:36:22;24.10;70.00
24664;DHT22;12791;50.992;13.788;2023-06-10T10:38:48;24.10;69.90
24664;DHT22;12791;50.992;13.788;2023-06-10T10:41:15;24.10;70.50
24664;DHT22;12791;50.992;13.788;2023-06-10T10:43:45;24.10;69.10
24664;DHT22;12791;50.992;13.788;2023-06-10T10:46:14;24.10;66.50
24664;DHT22;12791;50.992;13.788;2023-06-10T10:48:41;24.10;67.40
24664;DHT22;12791;50.992;13.788;2023-06-10T10:51:08;24.10;68.50
24664;DHT22;12791;50.992;13.788;2023-06-10T10:53:37;24.10;65.10
24664;DHT22;12791;50.992;13.788;2023-06-10T10:56:08;24.20;63.20
24664;DHT22;12791;50.992;13.788;2023-06-10T10:58:38;24.20;62.70
24664;DHT22;12791;50.992;13.788;2023-06-10T11:01:13;24.20;63.20
24664;DHT22;12791;50.992;13.788;2023-06-10T11:03:43;24.30;60.30
24664;DHT22;12791;50.992;13.788;2023-06-10T11:06:13;24.40;60.50
24664;DHT22;12791;50.992;13.788;2023-06-10T11:08:46;24.40;58.20
24664;DHT22;12791;50.992;13.788;2023-06-10T11:11:18;24.50;59.20
24664;DHT22;12791;50.992;13.788;2023-06-10T11:13:58;24.50;60.00
24664;DHT22;12791;50.992;13.788;2023-06-10T11:16:29;24.70;58.40
24664;DHT22;12791;50.992;13.788;2023-06-10T11:18:56;24.80;58.90
24664;DHT22;12791;50.992;13.788;2023-06-10T11:21:23;24.80;57.40
24664;DHT22;12791;50.992;13.788;2023-06-10T11:23:51;24.90;58.70
24664;DHT22;12791;50.992;13.788;2023-06-10T11:26:19;25.00;58.90
24664;DHT22;12791;50.992;13.788;2023-06-10T11:29:09;25.10;57.00
24664;DHT22;12791;50.992;13.788;2023-06-10T11:31:45;25.20;55.50
24664;DHT22;12791;50.992;13.788;2023-06-10T11:34:13;25.20;55.60
24664;DHT22;12791;50.992;13.788;2023-06-10T11:36:41;25.20;55.40
24664;DHT22;12791;50.992;13.788;2023-06-10T11:39:11;25.10;55.30
24664;DHT22;12791;50.992;13.788;2023-06-10T11:41:39;25.10;54.60
24664;DHT22;12791;50.992;13.788;2023-06-10T11:44:08;25.10;55.60
24664;DHT22;12791;50.992;13.788;2023-06-10T11:46:35;25.20;56.00
24664;DHT22;12791;50.992;13.788;2023-06-10T11:49:04;25.10;56.00
24664;DHT22;12791;50.992;13.788;2023-06-10T11:51:33;25.10;55.70
24664;DHT22;12791;50.992;13.788;2023-06-10T11:54:00;25.10;54.00
24664;DHT22;12791;50.992;13.788;2023-06-10T11:56:28;25.10;54.30
24664;DHT22;12791;50.992;13.788;2023-06-10T11:58:57;25.10;54.40
24664;DHT22;12791;50.992;13.788;2023-06-10T12:01:26;25.00;55.00
24664;DHT22;12791;50.992;13.788;2023-06-10T12:03:57;24.90;52.50
24664;DHT22;12791;50.992;13.788;2023-06-10T12:06:26;24.90;52.80
24664;DHT22;12791;50.992;13.788;2023-06-10T12:08:53;24.90;53.20
24664;DHT22;12791;50.992;13.788;2023-06-10T12:11:20;24.80;51.30
24664;DHT22;12791;50.992;13.788;2023-06-10T12:13:48;24.80;50.50
24664;DHT22;12791;50.992;13.788;2023-06-10T12:16:15;24.80;49.70
24664;DHT22;12791;50.992;13.788;2023-06-10T12:18:43;24.80;50.50
24664;DHT22;12791;50.992;13.788;2023-06-10T12:21:23;24.90;51.50
24664;DHT22;12791;50.992;13.788;2023-06-10T12:24:05;25.00;51.20
24664;DHT22;12791;50.992;13.788;2023-06-10T12:26:37;25.20;50.00
24664;DHT22;12791;50.992;13.788;2023-06-10T12:29:19;25.30;50.90
24664;DHT22;12791;50.992;13.788;2023-06-10T12:31:55;25.50;50.30
24664;DHT22;12791;50.992;13.788;2023-06-10T12:34:37;25.60;48.90
24664;DHT22;12791;50.992;13.788;2023-06-10T12:37:10;25.70;47.40
24664;DHT22;12791;50.992;13.788;2023-06-10T12:39:51;25.80;48.00
24664;DHT22;12791;50.992;13.788;2023-06-10T12:42:21;25.70;48.00
24664;DHT22;12791;50.992;13.788;2023-06-10T12:44:53;25.70;48.50
24664;DHT22;12791;50.992;13.788;2023-06-10T12:47:20;25.80;46.90
24664;DHT22;12791;50.992;13.788;2023-06-10T12:49:46;25.80;46.90
24664;DHT22;12791;50.992;13.788;2023-06-10T12:52:13;25.80;46.40
24664;DHT22;12791;50.992;13.788;2023-06-10T12:54:39;25.90;46.90
24664;DHT22;12791;50.992;13.788;2023-06-10T12:57:07;25.90;46.20
24664;DHT22;12791;50.992;13.788;2023-06-10T12:59:36;25.90;46.40
24664;DHT22;12791;50.992;13.788;2023-06-10T13:02:02;26.00;44.90
24664;DHT22;12791;50.992;13.788;2023-06-10T13:04:29;26.10;44.70
24664;DHT22;12791;50.992;13.788;2023-06-10T13:06:56;26.20;43.50
24664;DHT22;12791;50.992;13.788;2023-06-10T13:09:24;26.30;43.90
24664;DHT22;12791;50.992;13.788;2023-06-10T13:11:51;26.40;43.60
24664;DHT22;12791;50.992;13.788;2023-06-10T13:14:19;26.40;44.20
24664;DHT22;12791;50.992;13.788;2023-06-10T13:16:46;26.50;44.40
24664;DHT22;12791;50.992;13.788;2023-06-10T13:19:12;26.60;42.70
24664;DHT22;12791;50.992;13.788;2023-06-10T13:21:39;26.60;40.20
24664;DHT22;12791;50.992;13.788;2023-06-10T13:24:06;26.70;40.90
24664;DHT22;12791;50.992;13.788;2023-06-10T13:26:33;26.70;40.40
24664;DHT22;12791;50.992;13.788;2023-06-10T13:28:59;26.70;40.90
24664;DHT22;12791;50.992;13.788;2023-06-10T13:31:27;26.80;39.70
24664;DHT22;12791;50.992;13.788;2023-06-10T13:33:54;26.80;38.70
24664;DHT22;12791;50.992;13.788;2023-06-10T13:36:20;26.80;36.30
24664;DHT22;12791;50.992;13.788;2023-06-10T13:38:47;26.70;33.30
24664;DHT22;12791;50.992;13.788;2023-06-10T13:41:14;26.60;35.70
24664;DHT22;12791;50.992;13.788;2023-06-10T13:43:40;26.60;35.90
24664;DHT22;12791;50.992;13.788;2023-06-10T13:46:07;26.60;37.00
24664;DHT22;12791;50.992;13.788;2023-06-10T13:48:35;26.60;37.40
24664;DHT22;12791;50.992;13.788;2023-06-10T13:51:01;26.80;36.10
24664;DHT22;12791;50.992;13.788;2023-06-10T13:53:28;26.80;36.10
24664;DHT22;12791;50.992;13.788;2023-06-10T13:55:55;26.90;35.90
24664;DHT22;12791;50.992;13.788;2023-06-10T13:58:21;27.00;36.10
24664;DHT22;12791;50.992;13.788;2023-06-10T14:00:48;27.10;35.80
24664;DHT22;12791;50.992;13.788;2023-06-10T14:03:14;27.10;36.90
24664;DHT22;12791;50.992;13.788;2023-06-10T14:05:42;27.20;36.90
24664;DHT22;12791;50.992;13.788;2023-06-10T14:08:09;27.30;35.80
24664;DHT22;12791;50.992;13.788;2023-06-10T14:10:35;27.40;36.30
24664;DHT22;12791;50.992;13.788;2023-06-10T14:13:02;27.40;35.00
24664;DHT22;12791;50.992;13.788;2023-06-10T14:15:29;27.60;34.60
24664;DHT22;12791;50.992;13.788;2023-06-10T14:17:56;27.60;34.30
24664;DHT22;12791;50.992;13.788;2023-06-10T14:20:22;27.70;32.60
24664;DHT22;12791;50.992;13.788;2023-06-10T14:22:52;27.60;33.10
24664;DHT22;12791;50.992;13.788;2023-06-10T14:25:18;27.60;33.10
24664;DHT22;12791;50.992;13.788;2023-06-10T14:27:45;27.60;31.90
24664;DHT22;12791;50.992;13.788;2023-06-10T14:30:13;27.50;32.50
24664;DHT22;12791;50.992;13.788;2023-06-10T14:32:40;27.60;33.60
24664;DHT22;12791;50.992;13.788;2023-06-10T14:35:07;27.60;34.60
24664;DHT22;12791;50.992;13.788;2023-06-10T14:37:33;27.60;35.10
24664;DHT22;12791;50.992;13.788;2023-06-10T14:40:01;27.70;34.80
24664;DHT22;12791;50.992;13.788;2023-06-10T14:42:29;27.80;34.40
24664;DHT22;12791;50.992;13.788;2023-06-10T14:44:55;27.80;33.80
24664;DHT22;12791;50.992;13.788;2023-06-10T14:47:22;27.80;33.00
24664;DHT22;12791;50.992;13.788;2023-06-10T14:49:48;27.70;33.40
24664;DHT22;12791;50.992;13.788;2023-06-10T14:52:15;27.80;33.40
24664;DHT22;12791;50.992;13.788;2023-06-10T14:54:42;27.80;32.80
24664;DHT22;12791;50.992;13.788;2023-06-10T14:57:10;27.90;32.60
24664;DHT22;12791;50.992;13.788;2023-06-10T14:59:36;27.80;32.90
24664;DHT22;12791;50.992;13.788;2023-06-10T15:02:03;27.80;32.90
24664;DHT22;12791;50.992;13.788;2023-06-10T15:04:30;27.80;32.70
24664;DHT22;12791;50.992;13.788;2023-06-10T15:06:57;27.80;32.70
24664;DHT22;12791;50.992;13.788;2023-06-10T15:09:23;27.80;32.20
24664;DHT22;12791;50.992;13.788;2023-06-10T15:11:50;27.80;32.30
24664;DHT22;12791;50.992;13.788;2023-06-10T15:14:18;27.80;32.30
24664;DHT22;12791;50.992;13.788;2023-06-10T15:16:44;27.80;33.00
24664;DHT22;12791;50.992;13.788;2023-06-10T15:19:11;27.70;33.70